FDX2108 KSTL-KEWR
Flight info
| Callsign | FDX2108 |
|---|---|
| Flight time | N/A |
| Altitude | 33000 |
| Route | JHART7 RINTE DORET J584 SLT FQM3 |
| Aircraft | B77L/H-SDE1E2E3FGHIJ2J3J4J5M1RWXY/LB1D1 |
Departure
| Time | N/A |
|---|---|
| Airport | St. Louis Lambert International Airport (KSTL) |
Arrival
| Time | 2026-04-23 00:26 |
|---|---|
| Airport | Newark Liberty International Airport (KEWR) |
| Time | Latitude | Longitude | Altitude | Speed | Heading |
|---|---|---|---|---|---|
| 2026-04-22 23:04 | 40.00397 | -84.82805 | 33080 ft | 506 kts | 60° |
| 2026-04-22 23:04 | 40.03372 | -84.74684 | 33047 ft | 512 kts | 60° |
| 2026-04-22 23:05 | 40.06418 | -84.66324 | 33043 ft | 507 kts | 60° |
| 2026-04-22 23:05 | 40.09445 | -84.58001 | 33052 ft | 506 kts | 60° |
| 2026-04-22 23:06 | 40.12443 | -84.49740 | 33042 ft | 506 kts | 60° |
| 2026-04-22 23:06 | 40.15457 | -84.41411 | 33059 ft | 506 kts | 60° |
| 2026-04-22 23:07 | 40.18463 | -84.33080 | 33038 ft | 507 kts | 60° |
| 2026-04-22 23:07 | 40.21469 | -84.24725 | 33045 ft | 507 kts | 60° |
| 2026-04-22 23:08 | 40.24459 | -84.16386 | 33047 ft | 508 kts | 61° |
| 2026-04-22 23:08 | 40.27458 | -84.08005 | 33028 ft | 509 kts | 61° |
| 2026-04-22 23:09 | 40.30624 | -83.99731 | 33020 ft | 506 kts | 56° |
| 2026-04-22 23:09 | 40.34299 | -83.91877 | 33013 ft | 505 kts | 53° |
| 2026-04-22 23:10 | 40.38051 | -83.84088 | 33015 ft | 505 kts | 53° |
| 2026-04-22 23:10 | 40.41717 | -83.76268 | 33019 ft | 507 kts | 54° |
| 2026-04-22 23:11 | 40.45375 | -83.68305 | 33015 ft | 510 kts | 54° |
| 2026-04-22 23:11 | 40.49014 | -83.60323 | 32994 ft | 507 kts | 54° |
| 2026-04-22 23:12 | 40.52619 | -83.52401 | 32992 ft | 503 kts | 54° |
| 2026-04-22 23:12 | 40.56188 | -83.44551 | 32997 ft | 501 kts | 54° |
| 2026-04-22 23:13 | 40.59764 | -83.36672 | 33007 ft | 501 kts | 54° |
| 2026-04-22 23:13 | 40.63345 | -83.28763 | 33013 ft | 502 kts | 54° |
| 2026-04-22 23:14 | 40.66923 | -83.20840 | 33024 ft | 504 kts | 54° |
| 2026-04-22 23:14 | 40.70488 | -83.12922 | 33022 ft | 505 kts | 54° |
| 2026-04-22 23:15 | 40.74077 | -83.04930 | 33019 ft | 506 kts | 54° |
| 2026-04-22 23:15 | 40.77663 | -82.96923 | 33013 ft | 507 kts | 54° |
| 2026-04-22 23:16 | 40.81231 | -82.88934 | 33005 ft | 507 kts | 54° |
| 2026-04-22 23:16 | 40.84809 | -82.80902 | 32998 ft | 507 kts | 54° |
| 2026-04-22 23:17 | 40.88381 | -82.72863 | 32998 ft | 506 kts | 54° |
| 2026-04-22 23:17 | 40.91941 | -82.64829 | 32999 ft | 506 kts | 54° |
| 2026-04-22 23:18 | 40.95471 | -82.56844 | 33000 ft | 505 kts | 54° |
| 2026-04-22 23:18 | 40.98442 | -82.50106 | 33000 ft | 505 kts | 54° |
| 2026-04-22 23:19 | 41.01957 | -82.42115 | 32997 ft | 505 kts | 54° |
| 2026-04-22 23:19 | 41.05491 | -82.34061 | 32996 ft | 505 kts | 54° |
| 2026-04-22 23:20 | 41.09010 | -82.26019 | 32996 ft | 504 kts | 54° |
| 2026-04-22 23:20 | 41.12532 | -82.17948 | 32995 ft | 504 kts | 54° |
| 2026-04-22 23:21 | 41.16041 | -82.09885 | 32995 ft | 504 kts | 54° |
| 2026-04-22 23:21 | 41.19523 | -82.01864 | 32998 ft | 504 kts | 54° |
| 2026-04-22 23:22 | 41.23025 | -81.93773 | 32999 ft | 504 kts | 54° |
| 2026-04-22 23:22 | 41.26494 | -81.85740 | 32998 ft | 504 kts | 54° |
| 2026-04-22 23:23 | 41.29978 | -81.77647 | 32994 ft | 504 kts | 54° |
| 2026-04-22 23:23 | 41.33458 | -81.69544 | 32996 ft | 504 kts | 54° |
| 2026-04-22 23:24 | 41.36935 | -81.61425 | 33001 ft | 504 kts | 54° |
| 2026-04-22 23:24 | 41.40390 | -81.53336 | 33000 ft | 504 kts | 54° |
| 2026-04-22 23:25 | 41.43848 | -81.45216 | 33013 ft | 504 kts | 55° |
| 2026-04-22 23:25 | 41.47302 | -81.37086 | 33013 ft | 503 kts | 55° |
| 2026-04-22 23:26 | 41.50726 | -81.29005 | 33012 ft | 503 kts | 55° |
| 2026-04-22 23:26 | 41.54171 | -81.20849 | 33011 ft | 503 kts | 55° |
| 2026-04-22 23:27 | 41.57575 | -81.12770 | 33008 ft | 502 kts | 55° |
| 2026-04-22 23:27 | 41.61019 | -81.04574 | 33013 ft | 502 kts | 55° |
| 2026-04-22 23:28 | 41.64410 | -80.96480 | 33015 ft | 501 kts | 55° |
| 2026-04-22 23:28 | 41.67810 | -80.88345 | 33016 ft | 501 kts | 55° |
| 2026-04-22 23:29 | 41.71208 | -80.80189 | 33016 ft | 500 kts | 55° |
| 2026-04-22 23:29 | 41.74591 | -80.72051 | 33009 ft | 500 kts | 55° |
| 2026-04-22 23:30 | 41.77930 | -80.63871 | 33008 ft | 502 kts | 60° |
| 2026-04-22 23:30 | 41.79100 | -80.59427 | 33015 ft | 511 kts | 72° |
| 2026-04-22 23:30 | 41.79650 | -80.54688 | 32981 ft | 519 kts | 82° |
| 2026-04-22 23:31 | 41.79557 | -80.49888 | 33031 ft | 524 kts | 93° |
| 2026-04-22 23:31 | 41.79068 | -80.45029 | 33012 ft | 526 kts | 95° |
| 2026-04-22 23:31 | 41.77955 | -80.35326 | 33029 ft | 526 kts | 95° |
| 2026-04-22 23:32 | 41.76882 | -80.25609 | 33024 ft | 526 kts | 95° |
| 2026-04-22 23:32 | 41.75880 | -80.15945 | 33022 ft | 526 kts | 94° |
| 2026-04-22 23:33 | 41.74883 | -80.06196 | 33032 ft | 526 kts | 94° |
| 2026-04-22 23:33 | 41.73884 | -79.96544 | 33020 ft | 525 kts | 94° |
| 2026-04-22 23:34 | 41.72874 | -79.86904 | 33019 ft | 525 kts | 94° |
| 2026-04-22 23:34 | 41.71847 | -79.77209 | 33039 ft | 524 kts | 94° |
| 2026-04-22 23:35 | 41.70816 | -79.67546 | 33028 ft | 524 kts | 94° |
| 2026-04-22 23:35 | 41.69777 | -79.57890 | 33035 ft | 524 kts | 94° |
| 2026-04-22 23:36 | 41.68731 | -79.48239 | 33040 ft | 524 kts | 94° |
| 2026-04-22 23:36 | 41.67677 | -79.38597 | 33040 ft | 524 kts | 94° |
| 2026-04-22 23:37 | 41.66622 | -79.29009 | 33025 ft | 524 kts | 94° |
| 2026-04-22 23:37 | 41.65550 | -79.19343 | 33041 ft | 524 kts | 94° |
| 2026-04-22 23:38 | 41.64473 | -79.09702 | 33037 ft | 524 kts | 94° |
| 2026-04-22 23:38 | 41.63397 | -79.00122 | 33031 ft | 523 kts | 94° |
| 2026-04-22 23:39 | 41.62308 | -78.90484 | 33040 ft | 523 kts | 94° |
| 2026-04-22 23:39 | 41.61211 | -78.80856 | 33030 ft | 523 kts | 94° |
| 2026-04-22 23:40 | 41.60106 | -78.71236 | 33036 ft | 524 kts | 94° |
| 2026-04-22 23:40 | 41.58999 | -78.61690 | 33035 ft | 521 kts | 92° |
| 2026-04-22 23:41 | 41.57883 | -78.52112 | 33021 ft | 521 kts | 92° |
| 2026-04-22 23:41 | 41.56767 | -78.42597 | 33027 ft | 520 kts | 92° |
| 2026-04-22 23:42 | 41.55638 | -78.33061 | 33020 ft | 519 kts | 92° |
| 2026-04-22 23:42 | 41.54502 | -78.23527 | 33024 ft | 519 kts | 92° |
| 2026-04-22 23:43 | 41.53359 | -78.13992 | 33019 ft | 520 kts | 92° |
| 2026-04-22 23:43 | 41.52207 | -78.04448 | 33015 ft | 520 kts | 92° |
| 2026-04-22 23:44 | 41.51037 | -77.94912 | 33016 ft | 522 kts | 93° |
| 2026-04-22 23:44 | 41.49721 | -77.85426 | 32992 ft | 524 kts | 94° |
| 2026-04-22 23:45 | 41.48328 | -77.75875 | 33002 ft | 524 kts | 94° |
| 2026-04-22 23:45 | 41.46944 | -77.66323 | 32984 ft | 524 kts | 94° |
| 2026-04-22 23:46 | 41.45572 | -77.56783 | 32985 ft | 524 kts | 94° |
| 2026-04-22 23:46 | 41.44194 | -77.47230 | 32975 ft | 525 kts | 94° |
| 2026-04-22 23:47 | 41.42804 | -77.37674 | 32964 ft | 525 kts | 94° |
| 2026-04-22 23:47 | 41.41408 | -77.28138 | 32950 ft | 524 kts | 94° |
| 2026-04-22 23:48 | 41.40015 | -77.18679 | 32952 ft | 523 kts | 94° |
| 2026-04-22 23:48 | 41.38607 | -77.09166 | 32936 ft | 522 kts | 94° |
| 2026-04-22 23:49 | 41.37193 | -76.99671 | 32941 ft | 522 kts | 95° |
| 2026-04-22 23:49 | 41.35770 | -76.90181 | 32935 ft | 521 kts | 95° |
| 2026-04-22 23:50 | 41.34346 | -76.80726 | 32947 ft | 521 kts | 95° |
| 2026-04-22 23:50 | 41.32545 | -76.71385 | 32945 ft | 528 kts | 103° |
| 2026-04-22 23:51 | 41.29988 | -76.62351 | 32954 ft | 530 kts | 105° |
| 2026-04-22 23:51 | 41.27364 | -76.53195 | 32960 ft | 529 kts | 104° |
| 2026-04-22 23:52 | 41.24870 | -76.44015 | 32940 ft | 526 kts | 103° |
| 2026-04-22 23:52 | 41.23668 | -76.39532 | 32727 ft | 518 kts | 103° |
| 2026-04-22 23:52 | 41.22463 | -76.35048 | 32196 ft | 513 kts | 103° |
| 2026-04-22 23:53 | 41.21255 | -76.30556 | 31264 ft | 518 kts | 103° |
| 2026-04-22 23:53 | 41.20032 | -76.26019 | 30216 ft | 525 kts | 104° |
| 2026-04-22 23:53 | 41.18788 | -76.21436 | 29243 ft | 527 kts | 104° |
| 2026-04-22 23:53 | 41.17550 | -76.16905 | 28564 ft | 522 kts | 105° |
| 2026-04-22 23:54 | 41.16313 | -76.12385 | 28058 ft | 514 kts | 105° |
| 2026-04-22 23:54 | 41.15103 | -76.07961 | 27542 ft | 507 kts | 105° |
| 2026-04-22 23:54 | 41.13921 | -76.03642 | 26949 ft | 501 kts | 105° |
| 2026-04-22 23:54 | 41.12730 | -75.99300 | 26358 ft | 496 kts | 105° |
| 2026-04-22 23:55 | 41.11552 | -75.95018 | 25787 ft | 492 kts | 106° |
| 2026-04-22 23:55 | 41.10382 | -75.90774 | 25251 ft | 487 kts | 106° |
| 2026-04-22 23:55 | 41.09224 | -75.86576 | 24726 ft | 482 kts | 106° |
| 2026-04-22 23:55 | 41.08077 | -75.82420 | 24211 ft | 477 kts | 107° |
| 2026-04-22 23:56 | 41.06948 | -75.78339 | 23614 ft | 464 kts | 107° |
| 2026-04-22 23:56 | 41.05846 | -75.74367 | 22503 ft | 456 kts | 107° |
| 2026-04-22 23:56 | 41.04758 | -75.70439 | 21255 ft | 454 kts | 107° |
| 2026-04-22 23:56 | 41.03738 | -75.66752 | 20399 ft | 462 kts | 107° |
| 2026-04-22 23:57 | 41.02615 | -75.62710 | 19767 ft | 460 kts | 107° |
| 2026-04-22 23:57 | 41.01523 | -75.58795 | 19175 ft | 458 kts | 107° |
| 2026-04-22 23:57 | 41.00416 | -75.54834 | 18665 ft | 455 kts | 108° |
| 2026-04-22 23:57 | 40.99318 | -75.50909 | 18106 ft | 452 kts | 108° |
| 2026-04-22 23:58 | 40.98226 | -75.47012 | 17497 ft | 449 kts | 108° |
| 2026-04-22 23:58 | 40.97146 | -75.43159 | 16946 ft | 445 kts | 108° |
| 2026-04-22 23:58 | 40.96074 | -75.39340 | 16411 ft | 441 kts | 108° |
| 2026-04-22 23:58 | 40.95007 | -75.35544 | 15881 ft | 437 kts | 108° |
| 2026-04-22 23:59 | 40.93969 | -75.31854 | 15383 ft | 432 kts | 108° |
| 2026-04-22 23:59 | 40.92924 | -75.28144 | 14869 ft | 428 kts | 108° |
| 2026-04-22 23:59 | 40.91881 | -75.24448 | 14369 ft | 425 kts | 108° |
| 2026-04-22 23:59 | 40.90851 | -75.20803 | 13853 ft | 422 kts | 108° |
| 2026-04-23 00:00 | 40.88814 | -75.13602 | 12776 ft | 413 kts | 109° |
| 2026-04-23 00:00 | 40.88148 | -75.11255 | 12442 ft | 410 kts | 109° |
| 2026-04-23 00:00 | 40.86818 | -75.06552 | 11770 ft | 405 kts | 109° |
| 2026-04-23 00:01 | 40.85855 | -75.03142 | 11291 ft | 401 kts | 109° |
| 2026-04-23 00:01 | 40.84885 | -74.99702 | 10928 ft | 393 kts | 109° |
| 2026-04-23 00:01 | 40.83942 | -74.96370 | 10760 ft | 380 kts | 109° |
| 2026-04-23 00:01 | 40.83030 | -74.93155 | 10616 ft | 368 kts | 109° |
| 2026-04-23 00:02 | 40.82164 | -74.90014 | 10453 ft | 356 kts | 108° |
| 2026-04-23 00:02 | 40.81378 | -74.86995 | 10308 ft | 344 kts | 107° |
| 2026-04-23 00:02 | 40.80629 | -74.84050 | 10167 ft | 328 kts | 107° |
| 2026-04-23 00:02 | 40.79924 | -74.81271 | 10034 ft | 310 kts | 107° |
| 2026-04-23 00:03 | 40.79311 | -74.78642 | 9872 ft | 296 kts | 97° |
| 2026-04-23 00:03 | 40.79386 | -74.75993 | 9563 ft | 285 kts | 67° |
| 2026-04-23 00:03 | 40.80292 | -74.73707 | 9312 ft | 282 kts | 51° |
| 2026-04-23 00:03 | 40.81106 | -74.71284 | 9022 ft | 297 kts | 71° |
| 2026-04-23 00:04 | 40.81567 | -74.68616 | 8709 ft | 296 kts | 69° |
| 2026-04-23 00:04 | 40.82227 | -74.66077 | 8435 ft | 289 kts | 64° |
| 2026-04-23 00:04 | 40.82713 | -74.64446 | 8217 ft | 285 kts | 63° |
| 2026-04-23 00:04 | 40.83445 | -74.62046 | 7953 ft | 280 kts | 63° |
| 2026-04-23 00:05 | 40.84178 | -74.59658 | 7650 ft | 282 kts | 63° |
| 2026-04-23 00:05 | 40.84926 | -74.57249 | 7350 ft | 285 kts | 63° |
| 2026-04-23 00:05 | 40.85687 | -74.54823 | 7097 ft | 284 kts | 63° |
| 2026-04-23 00:05 | 40.86431 | -74.52456 | 7054 ft | 276 kts | 63° |
| 2026-04-23 00:06 | 40.87175 | -74.50100 | 7008 ft | 278 kts | 63° |
| 2026-04-23 00:06 | 40.87928 | -74.47737 | 7003 ft | 281 kts | 63° |
| 2026-04-23 00:06 | 40.88683 | -74.45384 | 7002 ft | 282 kts | 63° |
| 2026-04-23 00:06 | 40.89451 | -74.42999 | 7003 ft | 281 kts | 63° |
| 2026-04-23 00:07 | 40.90222 | -74.40617 | 7006 ft | 281 kts | 63° |
| 2026-04-23 00:07 | 40.90990 | -74.38248 | 7000 ft | 280 kts | 63° |
| 2026-04-23 00:07 | 40.91758 | -74.35881 | 7002 ft | 279 kts | 63° |
| 2026-04-23 00:07 | 40.92522 | -74.33528 | 7010 ft | 278 kts | 64° |
| 2026-04-23 00:08 | 40.92879 | -74.31043 | 7005 ft | 283 kts | 95° |
| 2026-04-23 00:08 | 40.92151 | -74.28625 | 7017 ft | 288 kts | 131° |
| 2026-04-23 00:08 | 40.90734 | -74.26775 | 6783 ft | 287 kts | 137° |
| 2026-04-23 00:08 | 40.89316 | -74.24919 | 6493 ft | 285 kts | 135° |
| 2026-04-23 00:09 | 40.87941 | -74.23037 | 6158 ft | 282 kts | 134° |
| 2026-04-23 00:09 | 40.86617 | -74.21188 | 5817 ft | 280 kts | 134° |
| 2026-04-23 00:09 | 40.85291 | -74.19316 | 5502 ft | 275 kts | 134° |
| 2026-04-23 00:09 | 40.84021 | -74.17510 | 5407 ft | 261 kts | 134° |
| 2026-04-23 00:10 | 40.82814 | -74.15789 | 5298 ft | 248 kts | 134° |
| 2026-04-23 00:10 | 40.81675 | -74.14164 | 5148 ft | 233 kts | 134° |
| 2026-04-23 00:10 | 40.80646 | -74.12697 | 5094 ft | 214 kts | 134° |
| 2026-04-23 00:10 | 40.80064 | -74.11905 | 4971 ft | 205 kts | 142° |
| 2026-04-23 00:11 | 40.78809 | -74.11193 | 4543 ft | 194 kts | 182° |
| 2026-04-23 00:11 | 40.77504 | -74.11488 | 4024 ft | 190 kts | 202° |
| 2026-04-23 00:11 | 40.76252 | -74.12068 | 3419 ft | 191 kts | 205° |
| 2026-04-23 00:11 | 40.75040 | -74.12773 | 2801 ft | 190 kts | 209° |
| 2026-04-23 00:12 | 40.73891 | -74.13633 | 2176 ft | 189 kts | 218° |
| 2026-04-23 00:12 | 40.72829 | -74.14596 | 1699 ft | 183 kts | 210° |
| 2026-04-23 00:12 | 40.71747 | -74.15336 | 1392 ft | 170 kts | 207° |
| 2026-04-23 00:12 | 40.70697 | -74.16045 | 1322 ft | 170 kts | 207° |
| 2026-04-23 00:13 | 40.69645 | -74.16757 | 1578 ft | 170 kts | 207° |
| 2026-04-23 00:13 | 40.68579 | -74.17483 | 1860 ft | 181 kts | 216° |
| 2026-04-23 00:13 | 40.67528 | -74.18615 | 2194 ft | 209 kts | 223° |
| 2026-04-23 00:13 | 40.66370 | -74.19977 | 2605 ft | 236 kts | 223° |
| 2026-04-23 00:14 | 40.65097 | -74.21473 | 3020 ft | 253 kts | 224° |
| 2026-04-23 00:14 | 40.63773 | -74.23012 | 3002 ft | 253 kts | 223° |
| 2026-04-23 00:14 | 40.62462 | -74.24522 | 3014 ft | 253 kts | 223° |
| 2026-04-23 00:14 | 40.61189 | -74.26111 | 3005 ft | 250 kts | 236° |
| 2026-04-23 00:15 | 40.60645 | -74.28236 | 3015 ft | 249 kts | 271° |
| 2026-04-23 00:15 | 40.61065 | -74.30452 | 3015 ft | 254 kts | 299° |
| 2026-04-23 00:15 | 40.62271 | -74.32117 | 3006 ft | 255 kts | 328° |
| 2026-04-23 00:15 | 40.63954 | -74.32783 | 2998 ft | 256 kts | 356° |
| 2026-04-23 00:16 | 40.65707 | -74.32595 | 3017 ft | 259 kts | 6° |
| 2026-04-23 00:16 | 40.67493 | -74.32204 | 3148 ft | 258 kts | 10° |
| 2026-04-23 00:16 | 40.69161 | -74.31358 | 3137 ft | 256 kts | 24° |
| 2026-04-23 00:16 | 40.70737 | -74.30255 | 3292 ft | 256 kts | 26° |
| 2026-04-23 00:17 | 40.72299 | -74.29113 | 3278 ft | 256 kts | 26° |
| 2026-04-23 00:17 | 40.73849 | -74.27969 | 3233 ft | 253 kts | 26° |
| 2026-04-23 00:17 | 40.75347 | -74.26853 | 3121 ft | 241 kts | 26° |
| 2026-04-23 00:17 | 40.76763 | -74.25792 | 3025 ft | 226 kts | 27° |
| 2026-04-23 00:18 | 40.78061 | -74.24817 | 2984 ft | 209 kts | 26° |
| 2026-04-23 00:18 | 40.79291 | -74.23889 | 3033 ft | 199 kts | 26° |
| 2026-04-23 00:18 | 40.80460 | -74.23002 | 2998 ft | 187 kts | 26° |
| 2026-04-23 00:18 | 40.81562 | -74.22162 | 3001 ft | 180 kts | 26° |
| 2026-04-23 00:19 | 40.82648 | -74.21332 | 3011 ft | 181 kts | 28° |
| 2026-04-23 00:19 | 40.83532 | -74.20158 | 3014 ft | 181 kts | 50° |
| 2026-04-23 00:19 | 40.84474 | -74.19096 | 3012 ft | 178 kts | 25° |
| 2026-04-23 00:19 | 40.85573 | -74.18291 | 3025 ft | 184 kts | 26° |
| 2026-04-23 00:20 | 40.86697 | -74.17450 | 3017 ft | 185 kts | 26° |
| 2026-04-23 00:20 | 40.87803 | -74.16618 | 2993 ft | 180 kts | 26° |
| 2026-04-23 00:20 | 40.88883 | -74.15806 | 2990 ft | 178 kts | 26° |
| 2026-04-23 00:20 | 40.89951 | -74.15003 | 3000 ft | 179 kts | 26° |
| 2026-04-23 00:21 | 40.91008 | -74.13914 | 3025 ft | 221 kts | 53° |
| 2026-04-23 00:21 | 40.91434 | -74.11863 | 3029 ft | 241 kts | 94° |
| 2026-04-23 00:21 | 40.90778 | -74.09860 | 3008 ft | 242 kts | 134° |
| 2026-04-23 00:21 | 40.89344 | -74.08840 | 3011 ft | 239 kts | 174° |
| 2026-04-23 00:22 | 40.87772 | -74.09027 | 2995 ft | 216 kts | 194° |
| 2026-04-23 00:22 | 40.86348 | -74.09364 | 2757 ft | 199 kts | 191° |
| 2026-04-23 00:22 | 40.85017 | -74.09586 | 2470 ft | 189 kts | 188° |
| 2026-04-23 00:22 | 40.83741 | -74.09758 | 2199 ft | 184 kts | 187° |
| 2026-04-23 00:23 | 40.82492 | -74.09903 | 2055 ft | 177 kts | 186° |
| 2026-04-23 00:23 | 40.81242 | -74.10038 | 2042 ft | 184 kts | 186° |
| 2026-04-23 00:23 | 40.79946 | -74.10171 | 2009 ft | 188 kts | 186° |
| 2026-04-23 00:23 | 40.78715 | -74.10584 | 1989 ft | 178 kts | 202° |
| 2026-04-23 00:24 | 40.77560 | -74.11192 | 1728 ft | 175 kts | 205° |
| 2026-04-23 00:24 | 40.76509 | -74.11843 | 1495 ft | 159 kts | 206° |
| 2026-04-23 00:24 | 40.75551 | -74.12457 | 1320 ft | 151 kts | 206° |
| 2026-04-23 00:24 | 40.74636 | -74.13042 | 1122 ft | 143 kts | 206° |
| 2026-04-23 00:25 | 40.73724 | -74.13625 | 918 ft | 148 kts | 205° |
| 2026-04-23 00:25 | 40.72791 | -74.14220 | 693 ft | 148 kts | 204° |
| 2026-04-23 00:25 | 40.71864 | -74.14812 | 489 ft | 147 kts | 204° |
| 2026-04-23 00:25 | 40.70957 | -74.15397 | 296 ft | 142 kts | 204° |
| 2026-04-23 00:26 | 40.70082 | -74.15955 | 111 ft | 138 kts | 203° |
| 2026-04-23 00:26 | 40.69244 | -74.16478 | 29 ft | 124 kts | 205° |
| 2026-04-23 00:26 | 40.68609 | -74.16885 | 28 ft | 79 kts | 206° |
| 2026-04-23 00:26 | 40.68275 | -74.17168 | 27 ft | 36 kts | 229° |
| 2026-04-23 00:27 | 40.68185 | -74.17330 | 25 ft | 0 kts | 235° |
| 2026-04-23 00:28 | 40.68157 | -74.17385 | 24 ft | 14 kts | 237° |
| 2026-04-23 00:29 | 40.68170 | -74.17512 | 26 ft | 15 kts | 294° |
| 2026-04-23 00:29 | 40.68206 | -74.17638 | 26 ft | 15 kts | 265° |
| 2026-04-23 00:29 | 40.68131 | -74.17731 | 24 ft | 16 kts | 207° |
| 2026-04-23 00:29 | 40.68015 | -74.17804 | 23 ft | 20 kts | 206° |
| 2026-04-23 00:30 | 40.67892 | -74.17883 | 30 ft | 20 kts | 206° |
| 2026-04-23 00:30 | 40.67768 | -74.17961 | 26 ft | 20 kts | 206° |
| 2026-04-23 00:30 | 40.67658 | -74.18051 | 29 ft | 17 kts | 237° |
| 2026-04-23 00:30 | 40.67683 | -74.18177 | 27 ft | 15 kts | 299° |
| 2026-04-23 00:31 | 40.67729 | -74.18299 | 32 ft | 15 kts | 297° |
| 2026-04-23 00:31 | 40.67767 | -74.18397 | 30 ft | 0 kts | 297° |
| 2026-04-23 00:31 | 40.67767 | -74.18406 | 30 ft | 4 kts | 272° |
| 2026-04-23 00:31 | 40.67748 | -74.18439 | 29 ft | 5 kts | 220° |
| 2026-04-23 00:32 | 40.67727 | -74.18456 | 30 ft | 2 kts | 209° |
| 2026-04-23 00:32 | 40.67719 | -74.18462 | 30 ft | 0 kts | 210° |